sensor_id;sensor_type;location;lat;lon;timestamp;P1;durP1;ratioP1;P2;durP2;ratioP2
4055;SDS011;2043;52.184;8.690;2023-04-25T00:02:14;25.70;;;6.27;;
4055;SDS011;2043;52.184;8.690;2023-04-25T00:04:41;20.57;;;6.83;;
4055;SDS011;2043;52.184;8.690;2023-04-25T00:07:09;22.83;;;7.07;;
4055;SDS011;2043;52.184;8.690;2023-04-25T00:09:36;23.93;;;7.70;;
4055;SDS011;2043;52.184;8.690;2023-04-25T00:12:03;25.90;;;8.27;;
4055;SDS011;2043;52.184;8.690;2023-04-25T00:14:31;20.30;;;6.87;;
4055;SDS011;2043;52.184;8.690;2023-04-25T00:17:00;22.80;;;6.70;;
4055;SDS011;2043;52.184;8.690;2023-04-25T00:19:27;24.43;;;7.47;;
4055;SDS011;2043;52.184;8.690;2023-04-25T00:21:54;18.40;;;6.83;;
4055;SDS011;2043;52.184;8.690;2023-04-25T00:24:21;25.07;;;7.20;;
4055;SDS011;2043;52.184;8.690;2023-04-25T00:26:48;24.23;;;8.17;;
4055;SDS011;2043;52.184;8.690;2023-04-25T00:29:15;22.50;;;8.10;;
4055;SDS011;2043;52.184;8.690;2023-04-25T00:31:42;24.00;;;6.83;;
4055;SDS011;2043;52.184;8.690;2023-04-25T00:34:08;22.73;;;7.43;;
4055;SDS011;2043;52.184;8.690;2023-04-25T00:36:35;23.97;;;7.10;;
4055;SDS011;2043;52.184;8.690;2023-04-25T00:39:02;26.83;;;8.17;;
4055;SDS011;2043;52.184;8.690;2023-04-25T00:41:30;22.43;;;7.17;;
4055;SDS011;2043;52.184;8.690;2023-04-25T00:43:57;15.87;;;7.47;;
4055;SDS011;2043;52.184;8.690;2023-04-25T00:46:25;27.83;;;7.53;;
4055;SDS011;2043;52.184;8.690;2023-04-25T00:48:52;22.10;;;7.90;;
4055;SDS011;2043;52.184;8.690;2023-04-25T00:51:19;19.93;;;7.87;;
4055;SDS011;2043;52.184;8.690;2023-04-25T00:53:47;22.10;;;8.10;;
4055;SDS011;2043;52.184;8.690;2023-04-25T00:56:16;20.93;;;7.63;;
4055;SDS011;2043;52.184;8.690;2023-04-25T00:58:43;24.77;;;9.37;;
4055;SDS011;2043;52.184;8.690;2023-04-25T01:01:11;35.83;;;9.50;;
4055;SDS011;2043;52.184;8.690;2023-04-25T01:03:39;31.33;;;8.23;;
4055;SDS011;2043;52.184;8.690;2023-04-25T01:06:09;32.47;;;8.60;;
4055;SDS011;2043;52.184;8.690;2023-04-25T01:08:37;24.60;;;8.27;;
4055;SDS011;2043;52.184;8.690;2023-04-25T01:11:05;36.37;;;11.40;;
4055;SDS011;2043;52.184;8.690;2023-04-25T01:13:32;30.07;;;9.37;;
4055;SDS011;2043;52.184;8.690;2023-04-25T01:15:59;27.70;;;9.10;;
4055;SDS011;2043;52.184;8.690;2023-04-25T01:18:27;37.90;;;9.50;;
4055;SDS011;2043;52.184;8.690;2023-04-25T01:20:54;18.63;;;8.93;;
4055;SDS011;2043;52.184;8.690;2023-04-25T01:23:22;28.57;;;8.40;;
4055;SDS011;2043;52.184;8.690;2023-04-25T01:25:49;35.67;;;9.83;;
4055;SDS011;2043;52.184;8.690;2023-04-25T01:28:16;25.70;;;9.33;;
4055;SDS011;2043;52.184;8.690;2023-04-25T01:30:44;25.67;;;9.27;;
4055;SDS011;2043;52.184;8.690;2023-04-25T01:33:11;28.53;;;9.47;;
4055;SDS011;2043;52.184;8.690;2023-04-25T01:35:39;28.60;;;8.30;;
4055;SDS011;2043;52.184;8.690;2023-04-25T01:38:06;25.73;;;9.23;;
4055;SDS011;2043;52.184;8.690;2023-04-25T01:40:33;27.53;;;8.70;;
4055;SDS011;2043;52.184;8.690;2023-04-25T01:43:04;22.93;;;8.63;;
4055;SDS011;2043;52.184;8.690;2023-04-25T01:45:31;27.73;;;8.53;;
4055;SDS011;2043;52.184;8.690;2023-04-25T01:47:59;21.33;;;8.53;;
4055;SDS011;2043;52.184;8.690;2023-04-25T01:50:26;31.57;;;9.10;;
4055;SDS011;2043;52.184;8.690;2023-04-25T01:52:53;27.63;;;9.13;;
4055;SDS011;2043;52.184;8.690;2023-04-25T01:55:21;19.70;;;8.37;;
4055;SDS011;2043;52.184;8.690;2023-04-25T01:57:47;18.73;;;7.97;;
4055;SDS011;2043;52.184;8.690;2023-04-25T02:00:15;30.80;;;9.90;;
4055;SDS011;2043;52.184;8.690;2023-04-25T02:02:42;18.77;;;8.40;;
4055;SDS011;2043;52.184;8.690;2023-04-25T02:05:08;29.80;;;8.73;;
4055;SDS011;2043;52.184;8.690;2023-04-25T02:07:35;17.80;;;7.90;;
4055;SDS011;2043;52.184;8.690;2023-04-25T02:10:02;16.17;;;6.70;;
4055;SDS011;2043;52.184;8.690;2023-04-25T02:12:30;21.37;;;7.63;;
4055;SDS011;2043;52.184;8.690;2023-04-25T02:14:58;15.43;;;6.00;;
4055;SDS011;2043;52.184;8.690;2023-04-25T02:17:24;27.33;;;7.07;;
4055;SDS011;2043;52.184;8.690;2023-04-25T02:19:52;21.40;;;6.07;;
4055;SDS011;2043;52.184;8.690;2023-04-25T02:22:19;15.73;;;5.87;;
4055;SDS011;2043;52.184;8.690;2023-04-25T02:24:46;16.50;;;5.80;;
4055;SDS011;2043;52.184;8.690;2023-04-25T02:27:13;20.80;;;5.80;;
4055;SDS011;2043;52.184;8.690;2023-04-25T02:29:39;17.50;;;5.93;;
4055;SDS011;2043;52.184;8.690;2023-04-25T02:32:06;28.10;;;6.63;;
4055;SDS011;2043;52.184;8.690;2023-04-25T02:34:33;21.17;;;7.07;;
4055;SDS011;2043;52.184;8.690;2023-04-25T02:37:00;21.70;;;5.87;;
4055;SDS011;2043;52.184;8.690;2023-04-25T02:39:27;23.03;;;6.00;;
4055;SDS011;2043;52.184;8.690;2023-04-25T02:41:54;23.27;;;5.60;;
4055;SDS011;2043;52.184;8.690;2023-04-25T02:44:21;20.97;;;5.80;;
4055;SDS011;2043;52.184;8.690;2023-04-25T02:46:48;26.77;;;5.90;;
4055;SDS011;2043;52.184;8.690;2023-04-25T02:49:15;26.13;;;6.20;;
4055;SDS011;2043;52.184;8.690;2023-04-25T02:51:42;25.20;;;5.80;;
4055;SDS011;2043;52.184;8.690;2023-04-25T02:54:08;26.80;;;7.90;;
4055;SDS011;2043;52.184;8.690;2023-04-25T02:56:36;25.47;;;6.30;;
4055;SDS011;2043;52.184;8.690;2023-04-25T02:59:02;33.17;;;6.37;;
4055;SDS011;2043;52.184;8.690;2023-04-25T03:01:29;26.30;;;6.20;;
4055;SDS011;2043;52.184;8.690;2023-04-25T03:03:56;27.10;;;6.23;;
4055;SDS011;2043;52.184;8.690;2023-04-25T03:06:23;30.77;;;5.60;;
4055;SDS011;2043;52.184;8.690;2023-04-25T03:08:50;29.57;;;5.90;;
4055;SDS011;2043;52.184;8.690;2023-04-25T03:11:16;26.57;;;5.73;;
4055;SDS011;2043;52.184;8.690;2023-04-25T03:13:43;27.07;;;6.90;;
4055;SDS011;2043;52.184;8.690;2023-04-25T03:16:10;24.57;;;6.63;;
4055;SDS011;2043;52.184;8.690;2023-04-25T03:18:37;26.63;;;6.00;;
4055;SDS011;2043;52.184;8.690;2023-04-25T03:21:03;30.03;;;6.80;;
4055;SDS011;2043;52.184;8.690;2023-04-25T03:23:31;33.93;;;6.63;;
4055;SDS011;2043;52.184;8.690;2023-04-25T03:25:57;33.70;;;5.60;;
4055;SDS011;2043;52.184;8.690;2023-04-25T03:28:24;34.67;;;6.60;;
4055;SDS011;2043;52.184;8.690;2023-04-25T03:30:51;31.70;;;6.67;;
4055;SDS011;2043;52.184;8.690;2023-04-25T03:33:18;30.20;;;7.80;;
4055;SDS011;2043;52.184;8.690;2023-04-25T03:35:45;40.03;;;7.80;;
4055;SDS011;2043;52.184;8.690;2023-04-25T03:38:11;26.23;;;6.90;;
4055;SDS011;2043;52.184;8.690;2023-04-25T03:40:38;32.53;;;7.23;;
4055;SDS011;2043;52.184;8.690;2023-04-25T03:43:05;24.10;;;6.20;;
4055;SDS011;2043;52.184;8.690;2023-04-25T03:45:32;23.60;;;6.10;;
4055;SDS011;2043;52.184;8.690;2023-04-25T03:47:59;47.33;;;8.07;;
4055;SDS011;2043;52.184;8.690;2023-04-25T03:50:26;32.37;;;7.57;;
4055;SDS011;2043;52.184;8.690;2023-04-25T03:52:53;26.03;;;7.00;;
4055;SDS011;2043;52.184;8.690;2023-04-25T03:55:20;38.73;;;7.20;;
4055;SDS011;2043;52.184;8.690;2023-04-25T03:57:48;23.67;;;6.77;;
4055;SDS011;2043;52.184;8.690;2023-04-25T04:00:14;33.03;;;7.37;;
4055;SDS011;2043;52.184;8.690;2023-04-25T04:02:41;29.70;;;7.40;;
4055;SDS011;2043;52.184;8.690;2023-04-25T04:05:10;40.87;;;6.83;;
4055;SDS011;2043;52.184;8.690;2023-04-25T04:07:39;38.13;;;7.93;;
4055;SDS011;2043;52.184;8.690;2023-04-25T04:10:06;34.00;;;5.63;;
4055;SDS011;2043;52.184;8.690;2023-04-25T04:12:33;19.50;;;6.00;;
4055;SDS011;2043;52.184;8.690;2023-04-25T04:15:01;23.63;;;5.77;;
4055;SDS011;2043;52.184;8.690;2023-04-25T04:17:29;38.13;;;6.43;;
4055;SDS011;2043;52.184;8.690;2023-04-25T04:19:56;33.17;;;6.43;;
4055;SDS011;2043;52.184;8.690;2023-04-25T04:22:23;24.30;;;6.27;;
4055;SDS011;2043;52.184;8.690;2023-04-25T04:24:50;22.40;;;5.80;;
4055;SDS011;2043;52.184;8.690;2023-04-25T04:27:17;32.17;;;6.30;;
4055;SDS011;2043;52.184;8.690;2023-04-25T04:29:45;35.17;;;6.20;;
4055;SDS011;2043;52.184;8.690;2023-04-25T04:32:13;23.63;;;5.97;;
4055;SDS011;2043;52.184;8.690;2023-04-25T04:34:40;27.57;;;7.07;;
4055;SDS011;2043;52.184;8.690;2023-04-25T04:37:07;24.73;;;6.40;;
4055;SDS011;2043;52.184;8.690;2023-04-25T04:39:36;26.00;;;7.10;;
4055;SDS011;2043;52.184;8.690;2023-04-25T04:42:03;28.87;;;6.93;;
4055;SDS011;2043;52.184;8.690;2023-04-25T04:44:31;21.33;;;5.63;;
4055;SDS011;2043;52.184;8.690;2023-04-25T04:47:01;31.00;;;7.17;;
4055;SDS011;2043;52.184;8.690;2023-04-25T04:49:29;26.80;;;6.87;;
4055;SDS011;2043;52.184;8.690;2023-04-25T04:51:56;23.87;;;5.80;;
4055;SDS011;2043;52.184;8.690;2023-04-25T04:54:25;31.00;;;6.87;;
4055;SDS011;2043;52.184;8.690;2023-04-25T04:56:52;26.30;;;5.60;;
4055;SDS011;2043;52.184;8.690;2023-04-25T04:59:19;39.80;;;5.67;;
4055;SDS011;2043;52.184;8.690;2023-04-25T05:01:45;23.70;;;7.57;;
4055;SDS011;2043;52.184;8.690;2023-04-25T05:04:13;35.57;;;7.03;;
4055;SDS011;2043;52.184;8.690;2023-04-25T05:06:40;28.43;;;6.87;;
4055;SDS011;2043;52.184;8.690;2023-04-25T05:09:06;32.60;;;7.17;;
4055;SDS011;2043;52.184;8.690;2023-04-25T05:11:33;28.87;;;7.07;;
4055;SDS011;2043;52.184;8.690;2023-04-25T05:14:00;25.93;;;6.30;;
4055;SDS011;2043;52.184;8.690;2023-04-25T05:16:27;40.60;;;7.10;;
4055;SDS011;2043;52.184;8.690;2023-04-25T05:18:54;36.73;;;7.73;;
4055;SDS011;2043;52.184;8.690;2023-04-25T05:21:21;28.40;;;6.50;;
4055;SDS011;2043;52.184;8.690;2023-04-25T05:23:48;31.83;;;6.70;;
4055;SDS011;2043;52.184;8.690;2023-04-25T05:26:15;26.93;;;6.37;;
4055;SDS011;2043;52.184;8.690;2023-04-25T05:28:42;32.97;;;6.50;;
4055;SDS011;2043;52.184;8.690;2023-04-25T05:31:09;25.20;;;6.50;;
4055;SDS011;2043;52.184;8.690;2023-04-25T05:33:36;29.13;;;7.40;;
4055;SDS011;2043;52.184;8.690;2023-04-25T05:36:03;42.03;;;6.93;;
4055;SDS011;2043;52.184;8.690;2023-04-25T05:38:31;25.30;;;7.17;;
4055;SDS011;2043;52.184;8.690;2023-04-25T05:41:00;29.43;;;6.30;;
4055;SDS011;2043;52.184;8.690;2023-04-25T05:43:27;36.00;;;8.20;;
4055;SDS011;2043;52.184;8.690;2023-04-25T05:45:53;23.73;;;5.23;;
4055;SDS011;2043;52.184;8.690;2023-04-25T05:48:20;39.07;;;6.97;;
4055;SDS011;2043;52.184;8.690;2023-04-25T05:50:47;24.43;;;6.03;;
4055;SDS011;2043;52.184;8.690;2023-04-25T05:53:14;23.73;;;6.57;;
4055;SDS011;2043;52.184;8.690;2023-04-25T05:55:41;28.40;;;6.47;;
4055;SDS011;2043;52.184;8.690;2023-04-25T05:58:08;22.70;;;6.20;;
4055;SDS011;2043;52.184;8.690;2023-04-25T06:00:35;24.40;;;6.63;;
4055;SDS011;2043;52.184;8.690;2023-04-25T06:03:01;21.20;;;5.67;;
4055;SDS011;2043;52.184;8.690;2023-04-25T06:05:28;36.40;;;7.10;;
4055;SDS011;2043;52.184;8.690;2023-04-25T06:07:56;24.50;;;7.67;;
4055;SDS011;2043;52.184;8.690;2023-04-25T06:10:22;21.70;;;6.27;;
4055;SDS011;2043;52.184;8.690;2023-04-25T06:12:49;29.33;;;6.20;;
4055;SDS011;2043;52.184;8.690;2023-04-25T06:15:16;34.60;;;6.17;;
4055;SDS011;2043;52.184;8.690;2023-04-25T06:17:59;25.53;;;6.47;;
4055;SDS011;2043;52.184;8.690;2023-04-25T06:20:26;27.10;;;6.20;;
4055;SDS011;2043;52.184;8.690;2023-04-25T06:22:53;29.20;;;4.97;;
4055;SDS011;2043;52.184;8.690;2023-04-25T06:25:20;23.90;;;5.50;;
4055;SDS011;2043;52.184;8.690;2023-04-25T06:27:47;28.73;;;5.80;;
4055;SDS011;2043;52.184;8.690;2023-04-25T06:30:14;24.50;;;5.50;;
4055;SDS011;2043;52.184;8.690;2023-04-25T06:32:41;27.40;;;5.80;;
4055;SDS011;2043;52.184;8.690;2023-04-25T06:35:08;25.93;;;6.10;;
4055;SDS011;2043;52.184;8.690;2023-04-25T06:37:36;25.10;;;7.17;;
4055;SDS011;2043;52.184;8.690;2023-04-25T06:40:03;21.87;;;4.90;;
4055;SDS011;2043;52.184;8.690;2023-04-25T06:42:31;33.13;;;5.07;;
4055;SDS011;2043;52.184;8.690;2023-04-25T06:44:57;20.40;;;4.97;;
4055;SDS011;2043;52.184;8.690;2023-04-25T06:47:24;28.33;;;6.03;;
4055;SDS011;2043;52.184;8.690;2023-04-25T06:49:51;20.17;;;5.27;;
4055;SDS011;2043;52.184;8.690;2023-04-25T06:52:18;29.30;;;5.93;;
4055;SDS011;2043;52.184;8.690;2023-04-25T06:54:45;18.10;;;4.13;;
4055;SDS011;2043;52.184;8.690;2023-04-25T06:57:12;24.50;;;5.20;;
4055;SDS011;2043;52.184;8.690;2023-04-25T06:59:39;23.50;;;4.43;;
4055;SDS011;2043;52.184;8.690;2023-04-25T07:02:06;27.47;;;6.60;;
4055;SDS011;2043;52.184;8.690;2023-04-25T07:04:33;20.67;;;5.23;;
4055;SDS011;2043;52.184;8.690;2023-04-25T07:07:00;18.00;;;4.60;;
4055;SDS011;2043;52.184;8.690;2023-04-25T07:09:28;23.83;;;5.33;;
4055;SDS011;2043;52.184;8.690;2023-04-25T07:11:56;21.23;;;5.00;;
4055;SDS011;2043;52.184;8.690;2023-04-25T07:14:23;15.67;;;4.60;;
4055;SDS011;2043;52.184;8.690;2023-04-25T07:16:50;22.90;;;5.07;;
4055;SDS011;2043;52.184;8.690;2023-04-25T07:19:17;36.80;;;5.07;;
4055;SDS011;2043;52.184;8.690;2023-04-25T07:21:44;19.90;;;4.70;;
4055;SDS011;2043;52.184;8.690;2023-04-25T07:24:11;19.03;;;4.50;;
4055;SDS011;2043;52.184;8.690;2023-04-25T07:26:38;20.23;;;4.80;;
4055;SDS011;2043;52.184;8.690;2023-04-25T07:29:05;28.23;;;4.53;;
4055;SDS011;2043;52.184;8.690;2023-04-25T07:31:31;25.87;;;4.43;;
4055;SDS011;2043;52.184;8.690;2023-04-25T07:33:59;17.53;;;4.00;;
4055;SDS011;2043;52.184;8.690;2023-04-25T07:36:27;14.37;;;3.33;;
4055;SDS011;2043;52.184;8.690;2023-04-25T07:38:54;33.23;;;4.73;;
4055;SDS011;2043;52.184;8.690;2023-04-25T07:41:21;13.13;;;3.67;;
4055;SDS011;2043;52.184;8.690;2023-04-25T07:43:48;19.90;;;4.00;;
4055;SDS011;2043;52.184;8.690;2023-04-25T07:46:15;14.80;;;4.00;;
4055;SDS011;2043;52.184;8.690;2023-04-25T07:48:42;13.70;;;3.77;;
4055;SDS011;2043;52.184;8.690;2023-04-25T07:51:09;19.03;;;4.50;;
4055;SDS011;2043;52.184;8.690;2023-04-25T07:53:36;19.60;;;3.97;;
4055;SDS011;2043;52.184;8.690;2023-04-25T07:56:04;27.83;;;4.50;;
4055;SDS011;2043;52.184;8.690;2023-04-25T07:58:31;18.53;;;4.07;;
4055;SDS011;2043;52.184;8.690;2023-04-25T08:00:58;12.40;;;3.90;;
4055;SDS011;2043;52.184;8.690;2023-04-25T08:03:25;17.17;;;4.30;;
4055;SDS011;2043;52.184;8.690;2023-04-25T08:05:52;20.40;;;4.57;;
4055;SDS011;2043;52.184;8.690;2023-04-25T08:08:19;12.13;;;3.70;;
4055;SDS011;2043;52.184;8.690;2023-04-25T08:10:46;88.80;;;38.93;;
4055;SDS011;2043;52.184;8.690;2023-04-25T08:13:14;17.43;;;4.23;;
4055;SDS011;2043;52.184;8.690;2023-04-25T08:15:41;9.30;;;3.33;;
4055;SDS011;2043;52.184;8.690;2023-04-25T08:18:08;21.53;;;4.60;;
4055;SDS011;2043;52.184;8.690;2023-04-25T08:20:35;13.80;;;3.03;;
4055;SDS011;2043;52.184;8.690;2023-04-25T08:23:02;14.40;;;3.43;;
4055;SDS011;2043;52.184;8.690;2023-04-25T08:25:29;21.20;;;4.37;;
4055;SDS011;2043;52.184;8.690;2023-04-25T08:27:56;14.73;;;3.70;;
4055;SDS011;2043;52.184;8.690;2023-04-25T08:30:23;10.93;;;3.30;;
4055;SDS011;2043;52.184;8.690;2023-04-25T08:32:50;10.27;;;3.70;;
4055;SDS011;2043;52.184;8.690;2023-04-25T08:35:17;14.93;;;3.50;;
4055;SDS011;2043;52.184;8.690;2023-04-25T08:37:44;13.40;;;2.97;;
4055;SDS011;2043;52.184;8.690;2023-04-25T08:40:12;14.10;;;3.50;;
4055;SDS011;2043;52.184;8.690;2023-04-25T08:42:41;13.47;;;3.27;;
4055;SDS011;2043;52.184;8.690;2023-04-25T08:45:09;14.53;;;3.30;;
4055;SDS011;2043;52.184;8.690;2023-04-25T08:47:37;18.20;;;3.77;;
4055;SDS011;2043;52.184;8.690;2023-04-25T08:50:06;11.60;;;3.43;;
4055;SDS011;2043;52.184;8.690;2023-04-25T08:52:37;21.47;;;3.13;;
4055;SDS011;2043;52.184;8.690;2023-04-25T08:55:10;12.70;;;3.27;;
4055;SDS011;2043;52.184;8.690;2023-04-25T08:57:40;12.70;;;2.77;;
4055;SDS011;2043;52.184;8.690;2023-04-25T09:00:09;13.27;;;3.03;;
4055;SDS011;2043;52.184;8.690;2023-04-25T09:02:39;16.60;;;3.20;;
4055;SDS011;2043;52.184;8.690;2023-04-25T09:05:06;10.67;;;3.33;;
4055;SDS011;2043;52.184;8.690;2023-04-25T09:07:36;11.37;;;3.17;;
4055;SDS011;2043;52.184;8.690;2023-04-25T09:10:03;22.63;;;2.90;;
4055;SDS011;2043;52.184;8.690;2023-04-25T09:12:30;14.50;;;3.67;;
4055;SDS011;2043;52.184;8.690;2023-04-25T09:17:34;10.20;;;2.50;;
4055;SDS011;2043;52.184;8.690;2023-04-25T09:20:05;10.70;;;2.90;;
4055;SDS011;2043;52.184;8.690;2023-04-25T09:22:34;10.13;;;2.83;;
4055;SDS011;2043;52.184;8.690;2023-04-25T09:25:11;15.17;;;3.30;;
4055;SDS011;2043;52.184;8.690;2023-04-25T09:27:49;9.40;;;2.70;;
4055;SDS011;2043;52.184;8.690;2023-04-25T09:30:18;10.87;;;3.20;;
4055;SDS011;2043;52.184;8.690;2023-04-25T09:32:45;8.87;;;3.00;;
4055;SDS011;2043;52.184;8.690;2023-04-25T09:35:23;16.37;;;3.70;;
4055;SDS011;2043;52.184;8.690;2023-04-25T09:37:52;12.33;;;3.00;;
4055;SDS011;2043;52.184;8.690;2023-04-25T09:40:19;11.67;;;3.07;;
4055;SDS011;2043;52.184;8.690;2023-04-25T09:42:46;8.03;;;2.50;;
4055;SDS011;2043;52.184;8.690;2023-04-25T09:45:13;13.40;;;3.30;;
4055;SDS011;2043;52.184;8.690;2023-04-25T09:47:41;18.07;;;3.67;;
4055;SDS011;2043;52.184;8.690;2023-04-25T09:50:13;11.40;;;3.27;;
4055;SDS011;2043;52.184;8.690;2023-04-25T09:52:42;14.50;;;2.80;;
4055;SDS011;2043;52.184;8.690;2023-04-25T09:55:09;12.83;;;3.00;;
4055;SDS011;2043;52.184;8.690;2023-04-25T09:57:36;17.80;;;3.20;;
4055;SDS011;2043;52.184;8.690;2023-04-25T10:00:06;10.30;;;2.77;;
4055;SDS011;2043;52.184;8.690;2023-04-25T10:02:38;8.20;;;2.50;;
4055;SDS011;2043;52.184;8.690;2023-04-25T10:05:05;13.60;;;3.10;;
4055;SDS011;2043;52.184;8.690;2023-04-25T10:07:34;9.40;;;2.73;;
4055;SDS011;2043;52.184;8.690;2023-04-25T10:10:04;15.80;;;2.87;;
4055;SDS011;2043;52.184;8.690;2023-04-25T10:12:32;8.33;;;2.63;;
4055;SDS011;2043;52.184;8.690;2023-04-25T10:15:00;7.03;;;2.00;;
4055;SDS011;2043;52.184;8.690;2023-04-25T10:17:27;10.20;;;2.67;;
4055;SDS011;2043;52.184;8.690;2023-04-25T10:19:54;12.80;;;2.67;;
4055;SDS011;2043;52.184;8.690;2023-04-25T10:25:11;6.87;;;2.40;;
4055;SDS011;2043;52.184;8.690;2023-04-25T10:27:39;5.77;;;2.23;;
4055;SDS011;2043;52.184;8.690;2023-04-25T10:30:15;9.90;;;2.50;;
4055;SDS011;2043;52.184;8.690;2023-04-25T10:32:42;15.97;;;2.60;;
4055;SDS011;2043;52.184;8.690;2023-04-25T10:35:13;7.23;;;2.10;;
4055;SDS011;2043;52.184;8.690;2023-04-25T10:37:56;8.83;;;2.50;;
4055;SDS011;2043;52.184;8.690;2023-04-25T10:40:26;14.93;;;2.33;;
4055;SDS011;2043;52.184;8.690;2023-04-25T10:42:53;13.00;;;2.70;;
4055;SDS011;2043;52.184;8.690;2023-04-25T10:45:22;11.13;;;2.33;;
4055;SDS011;2043;52.184;8.690;2023-04-25T10:47:49;8.70;;;2.50;;
4055;SDS011;2043;52.184;8.690;2023-04-25T10:50:16;7.70;;;2.50;;
4055;SDS011;2043;52.184;8.690;2023-04-25T10:52:43;11.60;;;2.90;;
4055;SDS011;2043;52.184;8.690;2023-04-25T10:55:10;10.93;;;2.50;;
4055;SDS011;2043;52.184;8.690;2023-04-25T10:57:42;12.03;;;2.30;;
4055;SDS011;2043;52.184;8.690;2023-04-25T11:00:16;13.17;;;2.73;;
4055;SDS011;2043;52.184;8.690;2023-04-25T11:02:51;5.83;;;1.90;;
4055;SDS011;2043;52.184;8.690;2023-04-25T11:05:20;7.57;;;2.07;;
4055;SDS011;2043;52.184;8.690;2023-04-25T11:08:22;8.83;;;2.60;;
4055;SDS011;2043;52.184;8.690;2023-04-25T11:11:01;10.13;;;2.53;;
4055;SDS011;2043;52.184;8.690;2023-04-25T11:13:29;8.67;;;2.73;;
4055;SDS011;2043;52.184;8.690;2023-04-25T11:15:56;7.70;;;2.03;;
4055;SDS011;2043;52.184;8.690;2023-04-25T11:18:40;11.80;;;2.63;;
4055;SDS011;2043;52.184;8.690;2023-04-25T11:21:11;10.73;;;2.40;;
4055;SDS011;2043;52.184;8.690;2023-04-25T11:23:38;8.20;;;2.27;;
4055;SDS011;2043;52.184;8.690;2023-04-25T11:26:04;9.17;;;2.30;;
4055;SDS011;2043;52.184;8.690;2023-04-25T11:28:31;14.33;;;3.03;;
4055;SDS011;2043;52.184;8.690;2023-04-25T11:30:58;9.20;;;2.73;;
4055;SDS011;2043;52.184;8.690;2023-04-25T11:33:25;13.70;;;2.83;;
4055;SDS011;2043;52.184;8.690;2023-04-25T11:35:56;10.27;;;2.40;;
4055;SDS011;2043;52.184;8.690;2023-04-25T11:38:23;8.07;;;2.80;;
4055;SDS011;2043;52.184;8.690;2023-04-25T11:40:54;9.97;;;2.57;;
4055;SDS011;2043;52.184;8.690;2023-04-25T11:43:22;9.03;;;2.43;;
4055;SDS011;2043;52.184;8.690;2023-04-25T11:45:49;8.53;;;2.00;;
4055;SDS011;2043;52.184;8.690;2023-04-25T11:48:19;6.70;;;2.43;;
4055;SDS011;2043;52.184;8.690;2023-04-25T11:50:51;8.63;;;2.27;;
4055;SDS011;2043;52.184;8.690;2023-04-25T11:53:18;8.50;;;2.23;;
4055;SDS011;2043;52.184;8.690;2023-04-25T11:55:45;8.73;;;2.40;;
4055;SDS011;2043;52.184;8.690;2023-04-25T11:58:12;12.03;;;2.40;;
4055;SDS011;2043;52.184;8.690;2023-04-25T12:00:41;10.50;;;2.40;;
4055;SDS011;2043;52.184;8.690;2023-04-25T12:03:17;12.87;;;2.13;;
4055;SDS011;2043;52.184;8.690;2023-04-25T12:05:45;7.43;;;2.13;;
4055;SDS011;2043;52.184;8.690;2023-04-25T12:08:13;9.93;;;2.40;;
4055;SDS011;2043;52.184;8.690;2023-04-25T12:10:41;6.27;;;2.13;;
4055;SDS011;2043;52.184;8.690;2023-04-25T12:13:22;5.97;;;1.90;;
4055;SDS011;2043;52.184;8.690;2023-04-25T12:15:50;4.73;;;1.67;;
4055;SDS011;2043;52.184;8.690;2023-04-25T12:18:22;7.77;;;2.27;;
4055;SDS011;2043;52.184;8.690;2023-04-25T12:20:52;9.57;;;1.67;;
4055;SDS011;2043;52.184;8.690;2023-04-25T12:23:26;8.20;;;2.10;;
4055;SDS011;2043;52.184;8.690;2023-04-25T12:25:54;7.37;;;1.80;;
4055;SDS011;2043;52.184;8.690;2023-04-25T12:28:23;9.30;;;1.90;;
4055;SDS011;2043;52.184;8.690;2023-04-25T12:31:01;8.70;;;2.13;;
4055;SDS011;2043;52.184;8.690;2023-04-25T12:33:37;6.83;;;2.10;;
4055;SDS011;2043;52.184;8.690;2023-04-25T12:36:05;9.73;;;2.27;;
4055;SDS011;2043;52.184;8.690;2023-04-25T12:38:38;8.77;;;2.23;;
4055;SDS011;2043;52.184;8.690;2023-04-25T12:41:06;7.60;;;2.00;;
4055;SDS011;2043;52.184;8.690;2023-04-25T12:43:33;10.17;;;2.50;;
4055;SDS011;2043;52.184;8.690;2023-04-25T12:46:01;9.80;;;2.83;;
4055;SDS011;2043;52.184;8.690;2023-04-25T12:48:27;8.90;;;2.00;;
4055;SDS011;2043;52.184;8.690;2023-04-25T12:50:54;12.40;;;2.10;;
4055;SDS011;2043;52.184;8.690;2023-04-25T12:53:22;4.97;;;1.90;;
4055;SDS011;2043;52.184;8.690;2023-04-25T12:55:52;10.20;;;2.13;;
4055;SDS011;2043;52.184;8.690;2023-04-25T12:58:23;4.30;;;1.70;;
4055;SDS011;2043;52.184;8.690;2023-04-25T13:00:51;6.77;;;1.83;;
4055;SDS011;2043;52.184;8.690;2023-04-25T13:03:19;12.43;;;1.73;;
4055;SDS011;2043;52.184;8.690;2023-04-25T13:05:46;8.00;;;1.90;;
4055;SDS011;2043;52.184;8.690;2023-04-25T13:08:13;5.80;;;1.90;;
4055;SDS011;2043;52.184;8.690;2023-04-25T13:10:39;4.97;;;1.93;;
4055;SDS011;2043;52.184;8.690;2023-04-25T13:13:06;10.30;;;2.40;;
4055;SDS011;2043;52.184;8.690;2023-04-25T13:15:33;8.57;;;1.93;;
4055;SDS011;2043;52.184;8.690;2023-04-25T13:18:00;5.30;;;2.00;;
4055;SDS011;2043;52.184;8.690;2023-04-25T13:20:27;6.37;;;2.17;;
4055;SDS011;2043;52.184;8.690;2023-04-25T13:22:54;5.97;;;1.73;;
4055;SDS011;2043;52.184;8.690;2023-04-25T13:25:21;12.43;;;2.03;;
4055;SDS011;2043;52.184;8.690;2023-04-25T13:27:48;3.90;;;1.50;;
4055;SDS011;2043;52.184;8.690;2023-04-25T13:30:14;12.47;;;2.23;;
4055;SDS011;2043;52.184;8.690;2023-04-25T13:32:41;4.60;;;1.77;;
4055;SDS011;2043;52.184;8.690;2023-04-25T13:35:09;4.60;;;1.47;;
4055;SDS011;2043;52.184;8.690;2023-04-25T13:37:38;3.60;;;1.53;;
4055;SDS011;2043;52.184;8.690;2023-04-25T13:40:06;15.80;;;2.53;;
4055;SDS011;2043;52.184;8.690;2023-04-25T13:42:35;9.53;;;1.93;;
4055;SDS011;2043;52.184;8.690;2023-04-25T13:45:06;11.13;;;1.70;;
4055;SDS011;2043;52.184;8.690;2023-04-25T13:47:34;6.57;;;2.00;;
4055;SDS011;2043;52.184;8.690;2023-04-25T13:50:01;5.37;;;1.80;;
4055;SDS011;2043;52.184;8.690;2023-04-25T13:52:29;5.10;;;1.90;;
4055;SDS011;2043;52.184;8.690;2023-04-25T13:54:57;6.10;;;2.37;;
4055;SDS011;2043;52.184;8.690;2023-04-25T13:57:24;7.57;;;2.20;;
4055;SDS011;2043;52.184;8.690;2023-04-25T13:59:51;4.73;;;1.73;;
4055;SDS011;2043;52.184;8.690;2023-04-25T14:02:19;5.00;;;1.70;;
4055;SDS011;2043;52.184;8.690;2023-04-25T14:04:46;4.90;;;1.87;;
4055;SDS011;2043;52.184;8.690;2023-04-25T14:07:13;5.47;;;2.20;;
4055;SDS011;2043;52.184;8.690;2023-04-25T14:09:44;8.30;;;2.20;;
4055;SDS011;2043;52.184;8.690;2023-04-25T14:12:11;5.03;;;1.97;;
4055;SDS011;2043;52.184;8.690;2023-04-25T14:14:38;5.50;;;2.00;;
4055;SDS011;2043;52.184;8.690;2023-04-25T14:17:05;8.77;;;2.10;;
4055;SDS011;2043;52.184;8.690;2023-04-25T14:19:33;6.63;;;2.30;;
4055;SDS011;2043;52.184;8.690;2023-04-25T14:22:00;4.70;;;1.80;;
4055;SDS011;2043;52.184;8.690;2023-04-25T14:24:27;8.50;;;2.50;;
4055;SDS011;2043;52.184;8.690;2023-04-25T14:26:53;4.63;;;1.87;;
4055;SDS011;2043;52.184;8.690;2023-04-25T14:29:21;7.83;;;1.87;;
4055;SDS011;2043;52.184;8.690;2023-04-25T14:31:47;7.10;;;2.13;;
4055;SDS011;2043;52.184;8.690;2023-04-25T14:34:14;4.53;;;2.13;;
4055;SDS011;2043;52.184;8.690;2023-04-25T14:36:41;8.13;;;1.97;;
4055;SDS011;2043;52.184;8.690;2023-04-25T14:39:08;13.10;;;2.63;;
4055;SDS011;2043;52.184;8.690;2023-04-25T14:41:36;6.67;;;1.70;;
4055;SDS011;2043;52.184;8.690;2023-04-25T14:44:03;6.80;;;2.30;;
4055;SDS011;2043;52.184;8.690;2023-04-25T14:46:30;6.67;;;1.70;;
4055;SDS011;2043;52.184;8.690;2023-04-25T14:48:57;9.57;;;2.30;;
4055;SDS011;2043;52.184;8.690;2023-04-25T14:51:24;3.70;;;1.50;;
4055;SDS011;2043;52.184;8.690;2023-04-25T14:53:52;7.20;;;1.93;;
4055;SDS011;2043;52.184;8.690;2023-04-25T14:56:19;12.23;;;2.33;;
4055;SDS011;2043;52.184;8.690;2023-04-25T14:58:46;9.03;;;3.70;;
4055;SDS011;2043;52.184;8.690;2023-04-25T15:01:13;9.67;;;2.60;;
4055;SDS011;2043;52.184;8.690;2023-04-25T15:03:40;8.53;;;2.00;;
4055;SDS011;2043;52.184;8.690;2023-04-25T15:06:08;7.60;;;2.53;;
4055;SDS011;2043;52.184;8.690;2023-04-25T15:08:35;5.23;;;2.33;;
4055;SDS011;2043;52.184;8.690;2023-04-25T15:11:02;8.37;;;2.60;;
4055;SDS011;2043;52.184;8.690;2023-04-25T15:13:29;7.13;;;2.60;;
4055;SDS011;2043;52.184;8.690;2023-04-25T15:15:56;8.90;;;4.47;;